createdAt,value
2019-01-09T00:00:24.547Z,939.09
2019-01-09T00:01:32.556Z,939.10
2019-01-09T00:02:40.630Z,939.14
2019-01-09T00:03:48.634Z,939.07
2019-01-09T00:07:38.386Z,939.06
2019-01-09T00:08:46.358Z,939.00
2019-01-09T00:30:03.209Z,938.78
2019-01-09T00:31:11.062Z,938.79
2019-01-09T00:32:19.130Z,938.78
2019-01-09T00:33:27.198Z,938.77
2019-01-09T00:46:01.551Z,938.57
2019-01-09T00:47:09.500Z,938.61
2019-01-09T00:48:17.664Z,938.57
2019-01-09T00:49:25.620Z,938.59
2019-01-09T00:50:33.567Z,938.60
2019-01-09T00:51:41.752Z,938.55
2019-01-09T00:52:49.851Z,938.57
2019-01-09T00:53:57.871Z,938.58
2019-01-09T00:55:05.894Z,938.57
2019-01-09T00:56:13.818Z,938.64
2019-01-09T00:57:21.976Z,938.60
2019-01-09T00:58:29.986Z,938.63
2019-01-09T00:59:38.092Z,938.63
2019-01-09T01:00:46.192Z,938.66
2019-01-09T01:01:54.169Z,938.63
2019-01-09T01:03:02.263Z,938.68
2019-01-09T01:04:10.227Z,938.68
2019-01-09T01:05:18.478Z,938.70
2019-01-09T01:06:26.486Z,938.69
2019-01-09T01:07:34.476Z,938.70
2019-01-09T01:08:42.515Z,938.61
2019-01-09T01:09:50.541Z,938.59
2019-01-09T01:10:58.766Z,938.62
2019-01-09T01:12:06.742Z,938.50
2019-01-09T01:13:14.662Z,938.49
2019-01-09T01:14:22.788Z,938.53
2019-01-09T01:15:30.842Z,938.57
2019-01-09T01:16:39.002Z,938.54
2019-01-09T01:17:47.021Z,938.45
2019-01-09T01:18:55.055Z,938.48
2019-01-09T01:20:03.736Z,938.38
2019-01-09T01:21:14.261Z,938.39
2019-01-09T01:22:22.515Z,938.39
2019-01-09T01:24:46.634Z,938.36
2019-01-09T01:25:54.791Z,938.31
2019-01-09T01:27:02.791Z,938.25
2019-01-09T01:28:10.963Z,938.24
2019-01-09T01:29:18.843Z,938.23
2019-01-09T01:30:27.024Z,938.21
2019-01-09T01:31:35.003Z,938.27
2019-01-09T01:32:43.184Z,938.16
2019-01-09T01:33:51.160Z,938.15
2019-01-09T01:34:59.211Z,938.21
2019-01-09T01:36:07.272Z,938.19
2019-01-09T01:37:15.293Z,938.16
2019-01-09T01:38:23.483Z,938.17
2019-01-09T01:39:31.521Z,938.12
2019-01-09T01:40:39.449Z,938.08
2019-01-09T01:41:47.534Z,938.11
2019-01-09T01:42:55.739Z,938.03
2019-01-09T01:44:03.658Z,938.13
2019-01-09T01:45:11.728Z,938.05
2019-01-09T01:46:19.772Z,938.04
2019-01-09T01:47:27.829Z,937.96
2019-01-09T01:48:35.968Z,937.87
2019-01-09T01:49:43.970Z,937.88
2019-01-09T01:50:51.909Z,937.92
2019-01-09T01:52:00.056Z,937.93
2019-01-09T01:53:08.102Z,937.97
2019-01-09T01:54:16.262Z,937.95
2019-01-09T01:55:24.107Z,937.95
2019-01-09T01:56:32.273Z,937.97
2019-01-09T01:57:40.291Z,937.93
2019-01-09T01:58:48.377Z,937.89
2019-01-09T01:59:56.516Z,937.97
2019-01-09T02:01:04.478Z,937.91
2019-01-09T02:02:12.580Z,938.01
2019-01-09T02:03:20.609Z,937.88
2019-01-09T02:04:28.710Z,937.95
2019-01-09T02:05:36.799Z,937.84
2019-01-09T02:06:44.795Z,937.91
2019-01-09T02:07:52.789Z,937.95
2019-01-09T02:09:00.820Z,937.93
2019-01-09T02:10:09.006Z,937.88
2019-01-09T02:11:17.067Z,937.92
2019-01-09T02:12:25.000Z,937.98
2019-01-09T02:13:33.098Z,937.96
2019-01-09T02:14:41.162Z,937.94
2019-01-09T02:15:49.198Z,937.86
2019-01-09T02:16:57.372Z,937.90
2019-01-09T02:18:05.291Z,937.86
2019-01-09T02:19:13.280Z,937.82
2019-01-09T02:20:21.434Z,937.81
2019-01-09T02:21:29.517Z,937.76
2019-01-09T02:22:37.624Z,937.77
2019-01-09T02:23:45.558Z,937.71
2019-01-09T02:24:53.676Z,937.70
2019-01-09T02:26:01.825Z,937.66
2019-01-09T02:27:09.765Z,937.65
2019-01-09T02:28:17.823Z,937.65
2019-01-09T02:29:25.876Z,937.67
2019-01-09T02:30:33.952Z,937.70
2019-01-09T02:31:42.001Z,937.62
2019-01-09T02:32:50.183Z,937.69
2019-01-09T02:33:58.128Z,937.71
2019-01-09T02:35:06.191Z,937.68
2019-01-09T02:36:14.164Z,937.72
2019-01-09T02:37:22.290Z,937.73
2019-01-09T02:38:30.243Z,937.72
2019-01-09T02:39:38.386Z,937.70
2019-01-09T02:40:46.389Z,937.63
2019-01-09T02:41:54.624Z,937.65
2019-01-09T02:43:02.601Z,937.62
2019-01-09T02:44:10.508Z,937.62
2019-01-09T02:45:18.559Z,937.58
2019-01-09T02:46:26.702Z,937.53
2019-01-09T02:47:34.786Z,937.56
2019-01-09T02:48:42.868Z,937.55
2019-01-09T02:49:50.777Z,937.55
2019-01-09T02:50:58.971Z,937.59
2019-01-09T02:52:07.033Z,937.52
2019-01-09T02:53:15.063Z,937.58
2019-01-09T02:54:23.300Z,937.54
2019-01-09T02:55:31.072Z,937.50
2019-01-09T02:56:39.195Z,937.53
2019-01-09T02:57:56.176Z,937.47
2019-01-09T02:58:55.353Z,937.51
2019-01-09T03:00:03.472Z,937.46
2019-01-09T03:01:11.474Z,937.43
2019-01-09T03:02:19.416Z,937.43
2019-01-09T03:03:27.578Z,937.39
2019-01-09T03:04:35.568Z,937.34
2019-01-09T03:05:43.756Z,937.32
2019-01-09T03:06:51.726Z,937.27
2019-01-09T03:07:59.756Z,937.29
2019-01-09T03:09:07.726Z,937.31
2019-01-09T03:10:15.854Z,937.35
2019-01-09T03:11:24.092Z,937.34
2019-01-09T03:12:32.087Z,937.30
2019-01-09T03:13:40.028Z,937.23
2019-01-09T03:14:48.013Z,937.17
2019-01-09T03:15:56.158Z,937.09
2019-01-09T03:17:04.317Z,937.11
2019-01-09T03:18:12.268Z,937.09
2019-01-09T03:19:20.233Z,937.05
2019-01-09T03:20:28.417Z,937.14
2019-01-09T03:21:36.348Z,937.11
2019-01-09T03:22:44.565Z,937.16
2019-01-09T03:23:52.457Z,937.16
2019-01-09T03:25:00.580Z,937.14
2019-01-09T03:26:08.673Z,937.05
2019-01-09T03:27:16.616Z,937.05
2019-01-09T03:28:24.879Z,937.04
2019-01-09T03:29:32.820Z,936.99
2019-01-09T03:30:40.909Z,936.98
2019-01-09T03:31:48.967Z,936.90
2019-01-09T03:32:57.132Z,936.84
2019-01-09T03:34:05.058Z,936.82
2019-01-09T03:35:13.116Z,936.81
2019-01-09T03:36:21.032Z,936.81
2019-01-09T03:37:29.163Z,936.77
2019-01-09T03:38:37.348Z,936.79
2019-01-09T03:39:45.293Z,936.73
2019-01-09T03:40:53.379Z,936.75
2019-01-09T03:42:01.322Z,936.73
2019-01-09T03:43:09.499Z,936.73
2019-01-09T03:44:17.622Z,936.66
2019-01-09T03:45:25.523Z,936.66
2019-01-09T03:46:33.636Z,936.62
2019-01-09T03:47:41.743Z,936.64
2019-01-09T03:48:49.768Z,936.61
2019-01-09T03:49:57.801Z,936.61
2019-01-09T03:51:05.870Z,936.64
2019-01-09T03:52:13.986Z,936.63
2019-01-09T03:53:22.028Z,936.70
2019-01-09T03:54:30.054Z,936.74
2019-01-09T03:55:38.182Z,936.68
2019-01-09T03:56:46.211Z,936.71
2019-01-09T03:57:54.203Z,936.74
2019-01-09T03:59:02.352Z,936.76
2019-01-09T04:00:10.313Z,936.79
2019-01-09T04:01:18.465Z,936.80
2019-01-09T04:02:26.445Z,936.76
2019-01-09T04:03:34.515Z,936.75
2019-01-09T04:04:42.534Z,936.76
2019-01-09T04:05:50.682Z,936.69
2019-01-09T04:06:58.640Z,936.68
2019-01-09T04:08:06.651Z,936.60
2019-01-09T04:09:14.758Z,936.57
2019-01-09T04:10:22.725Z,936.58
2019-01-09T04:11:30.913Z,936.55
2019-01-09T04:12:38.846Z,936.51
2019-01-09T04:13:46.961Z,936.54
2019-01-09T04:14:55.127Z,936.53
2019-01-09T04:16:03.222Z,936.52
2019-01-09T04:17:11.125Z,936.52
2019-01-09T04:18:19.212Z,936.54
2019-01-09T04:19:27.242Z,936.56
2019-01-09T04:20:35.323Z,936.55
2019-01-09T04:21:43.344Z,936.58
2019-01-09T04:22:51.485Z,936.50
2019-01-09T04:23:59.398Z,936.49
2019-01-09T04:25:07.563Z,936.41
2019-01-09T04:26:15.548Z,936.41
2019-01-09T04:27:23.561Z,936.41
2019-01-09T04:28:31.652Z,936.41
2019-01-09T04:29:41.726Z,936.37
2019-01-09T04:30:47.817Z,936.33
2019-01-09T04:31:56.003Z,936.34
2019-01-09T04:33:04.023Z,936.33
2019-01-09T04:34:11.912Z,936.30
2019-01-09T04:35:19.960Z,936.30
2019-01-09T04:36:28.077Z,936.33
2019-01-09T04:37:36.257Z,936.28
2019-01-09T04:38:44.198Z,936.27
2019-01-09T04:39:52.244Z,936.28
2019-01-09T04:41:00.360Z,936.26
2019-01-09T04:42:08.303Z,936.26
2019-01-09T04:43:16.517Z,936.28
2019-01-09T04:44:24.456Z,936.24
2019-01-09T04:45:32.538Z,936.21
2019-01-09T04:46:40.636Z,936.25
2019-01-09T04:47:48.625Z,936.18
2019-01-09T04:48:56.822Z,936.19
2019-01-09T04:50:04.838Z,936.17
2019-01-09T04:51:12.733Z,936.22
2019-01-09T04:52:20.863Z,936.20
2019-01-09T04:53:28.836Z,936.20
2019-01-09T04:54:37.157Z,936.17
2019-01-09T04:55:45.140Z,936.18
2019-01-09T04:56:53.115Z,936.20
2019-01-09T04:58:01.146Z,936.14
2019-01-09T04:59:09.138Z,936.14
2019-01-09T05:00:17.389Z,936.11
2019-01-09T05:01:25.271Z,936.08
2019-01-09T05:02:33.283Z,936.08
2019-01-09T05:03:41.326Z,936.08
2019-01-09T05:04:49.594Z,936.03
2019-01-09T05:05:57.533Z,936.09
2019-01-09T05:07:05.543Z,936.06
2019-01-09T05:08:13.559Z,936.10
2019-01-09T05:09:21.616Z,936.08
2019-01-09T05:10:29.679Z,936.09
2019-01-09T05:11:37.967Z,936.03
2019-01-09T05:12:45.787Z,935.95
2019-01-09T05:13:53.946Z,935.96
2019-01-09T05:15:01.905Z,935.90
2019-01-09T05:16:09.944Z,935.87
2019-01-09T05:17:18.112Z,935.88
2019-01-09T05:18:26.070Z,935.84
2019-01-09T05:19:34.119Z,935.89
2019-01-09T05:20:42.187Z,935.87
2019-01-09T05:21:50.235Z,935.83
2019-01-09T05:22:58.392Z,935.83
2019-01-09T05:24:06.341Z,935.87
2019-01-09T05:25:14.393Z,935.84
2019-01-09T05:26:22.471Z,935.86
2019-01-09T05:27:30.554Z,935.88
2019-01-09T05:28:38.569Z,935.88
2019-01-09T05:29:46.754Z,935.89
2019-01-09T05:30:54.709Z,935.89
2019-01-09T05:32:02.734Z,935.89
2019-01-09T05:33:10.854Z,935.89
2019-01-09T05:34:18.854Z,935.81
2019-01-09T05:35:26.897Z,935.77
2019-01-09T05:36:34.960Z,935.76
2019-01-09T05:37:43.103Z,935.75
2019-01-09T05:38:51.696Z,935.69
2019-01-09T05:39:59.145Z,935.74
2019-01-09T05:41:07.190Z,935.79
2019-01-09T05:42:15.242Z,935.78
2019-01-09T05:43:23.527Z,935.76
2019-01-09T05:44:31.661Z,935.78
2019-01-09T05:45:39.545Z,935.76
2019-01-09T05:46:47.467Z,935.76
2019-01-09T05:47:55.679Z,935.73
2019-01-09T05:49:03.575Z,935.69
2019-01-09T05:50:11.625Z,935.75
2019-01-09T05:51:19.685Z,935.77
2019-01-09T05:52:27.719Z,935.73
2019-01-09T05:53:35.879Z,935.68
2019-01-09T05:54:43.834Z,935.69
2019-01-09T05:55:51.929Z,935.71
2019-01-09T05:56:59.947Z,935.62
2019-01-09T05:58:08.015Z,935.64
2019-01-09T05:59:16.147Z,935.64
2019-01-09T06:00:24.166Z,935.65
2019-01-09T06:01:32.284Z,935.65
2019-01-09T06:02:40.228Z,935.65
2019-01-09T06:03:48.311Z,935.62
2019-01-09T06:04:56.557Z,935.60
2019-01-09T06:06:04.432Z,935.70
2019-01-09T06:07:18.248Z,935.65
2019-01-09T06:08:20.600Z,935.62
2019-01-09T06:09:29.308Z,935.64
2019-01-09T06:10:36.819Z,935.63
2019-01-09T06:11:44.700Z,935.68
2019-01-09T06:12:52.811Z,935.72
2019-01-09T06:14:00.963Z,935.66
2019-01-09T06:15:08.940Z,935.69
2019-01-09T06:16:17.496Z,935.65
2019-01-09T06:17:25.457Z,935.68
2019-01-09T06:18:33.079Z,935.63
2019-01-09T06:19:41.195Z,935.62
2019-01-09T06:20:49.183Z,935.59
2019-01-09T06:21:57.388Z,935.63
2019-01-09T06:23:05.307Z,935.54
2019-01-09T06:24:13.284Z,935.59
2019-01-09T06:25:21.460Z,935.57
2019-01-09T06:26:29.392Z,935.57
2019-01-09T06:27:37.622Z,935.61
2019-01-09T06:28:45.498Z,935.56
2019-01-09T06:29:53.657Z,935.59
2019-01-09T06:31:01.726Z,935.58
2019-01-09T06:32:09.804Z,935.57
2019-01-09T06:33:17.819Z,935.50
2019-01-09T06:34:25.778Z,935.50
2019-01-09T06:35:33.967Z,935.59
2019-01-09T06:36:41.982Z,935.55
2019-01-09T06:37:50.123Z,935.59
2019-01-09T06:38:58.111Z,935.56
2019-01-09T06:40:06.107Z,935.57
2019-01-09T06:41:14.200Z,935.58
2019-01-09T06:42:22.241Z,935.56
2019-01-09T06:43:30.267Z,935.54
2019-01-09T06:44:38.280Z,935.54
2019-01-09T06:45:46.394Z,935.55
2019-01-09T06:46:54.474Z,935.57
2019-01-09T06:48:02.671Z,935.56
2019-01-09T06:49:10.711Z,935.52
2019-01-09T06:50:18.553Z,935.52
2019-01-09T06:51:26.617Z,935.58
2019-01-09T06:52:34.747Z,935.56
2019-01-09T06:53:42.869Z,935.52
2019-01-09T06:54:50.771Z,935.64
2019-01-09T06:55:58.939Z,935.60
2019-01-09T06:57:06.957Z,935.55
2019-01-09T06:58:15.049Z,935.57
2019-01-09T06:59:23.099Z,935.57
2019-01-09T07:00:31.184Z,935.60
2019-01-09T07:01:39.120Z,935.57
2019-01-09T07:02:47.157Z,935.60
2019-01-09T07:03:55.358Z,935.65
2019-01-09T07:05:03.447Z,935.57
2019-01-09T07:06:11.398Z,935.60
2019-01-09T07:07:19.486Z,935.61
2019-01-09T07:08:27.552Z,935.63
2019-01-09T07:09:35.537Z,935.61
2019-01-09T07:10:43.707Z,935.60
2019-01-09T07:11:51.605Z,935.54
2019-01-09T07:12:59.764Z,935.58
2019-01-09T07:14:07.792Z,935.57
2019-01-09T07:15:15.870Z,935.56
2019-01-09T07:16:24.039Z,935.54
2019-01-09T07:17:32.023Z,935.62
2019-01-09T07:18:39.944Z,935.54
2019-01-09T07:19:48.122Z,935.53
2019-01-09T07:20:56.157Z,935.53
2019-01-09T07:22:04.291Z,935.52
2019-01-09T07:23:12.241Z,935.49
2019-01-09T07:24:20.312Z,935.48
2019-01-09T07:25:28.366Z,935.54
2019-01-09T07:26:36.336Z,935.44
2019-01-09T07:27:44.582Z,935.46
2019-01-09T07:28:52.439Z,935.50
2019-01-09T07:30:00.622Z,935.44
2019-01-09T07:31:08.554Z,935.38
2019-01-09T07:32:16.681Z,935.40
2019-01-09T07:33:24.832Z,935.38
2019-01-09T07:34:32.769Z,935.43
2019-01-09T07:35:40.863Z,935.49
2019-01-09T07:36:49.004Z,935.43
2019-01-09T07:37:57.091Z,935.38
2019-01-09T07:39:04.945Z,935.47
2019-01-09T07:40:13.204Z,935.45
2019-01-09T07:41:21.153Z,935.40
2019-01-09T07:42:29.154Z,935.31
2019-01-09T07:43:37.249Z,935.31
2019-01-09T07:44:45.220Z,935.31
2019-01-09T07:45:53.346Z,935.43
2019-01-09T07:47:01.422Z,935.38
2019-01-09T07:48:09.380Z,935.36
2019-01-09T07:49:17.605Z,935.38
2019-01-09T07:50:25.635Z,935.41
2019-01-09T07:51:33.639Z,935.44
2019-01-09T07:52:41.596Z,935.45
2019-01-09T07:53:49.737Z,935.40
2019-01-09T07:54:57.905Z,935.42
2019-01-09T07:56:05.995Z,935.36
2019-01-09T07:57:13.821Z,935.36
2019-01-09T07:58:21.993Z,935.41
2019-01-09T07:59:30.064Z,935.39
2019-01-09T08:00:38.171Z,935.42
2019-01-09T08:01:46.123Z,935.47
2019-01-09T08:02:54.087Z,935.55
2019-01-09T08:04:02.143Z,935.58
2019-01-09T08:05:10.262Z,935.64
2019-01-09T08:06:18.465Z,935.53
2019-01-09T08:07:26.446Z,935.60
2019-01-09T08:08:34.456Z,935.57
2019-01-09T08:09:42.550Z,935.53
2019-01-09T08:10:50.522Z,935.48
2019-01-09T08:11:58.709Z,935.50
2019-01-09T08:13:06.682Z,935.46
2019-01-09T08:14:14.770Z,935.45
2019-01-09T08:15:22.716Z,935.42
2019-01-09T08:16:30.893Z,935.45
2019-01-09T08:17:39.044Z,935.39
2019-01-09T08:18:48.316Z,935.30
2019-01-09T08:19:55.053Z,935.41
2019-01-09T08:21:05.359Z,935.44
2019-01-09T08:22:11.076Z,935.45
2019-01-09T08:23:19.309Z,935.44
2019-01-09T08:24:27.258Z,935.53
2019-01-09T08:25:35.299Z,935.59
2019-01-09T08:26:43.271Z,935.60
2019-01-09T08:27:51.488Z,935.59
2019-01-09T08:28:59.451Z,935.62
2019-01-09T08:30:07.507Z,935.63
2019-01-09T08:31:15.605Z,935.61
2019-01-09T08:32:23.697Z,935.69
2019-01-09T08:33:31.678Z,935.63
2019-01-09T08:34:39.749Z,935.65
2019-01-09T08:35:47.837Z,935.69
2019-01-09T08:36:55.957Z,935.74
2019-01-09T08:38:04.040Z,935.77
2019-01-09T08:39:12.009Z,935.71
2019-01-09T08:40:20.025Z,935.79
2019-01-09T08:41:27.995Z,935.81
2019-01-09T08:42:36.042Z,935.87
2019-01-09T08:43:44.184Z,935.87
2019-01-09T08:44:52.242Z,935.96
2019-01-09T08:46:00.258Z,935.91
2019-01-09T08:47:08.270Z,935.95
2019-01-09T08:48:16.461Z,935.98
2019-01-09T08:49:24.466Z,935.98
2019-01-09T08:50:32.428Z,935.98
2019-01-09T08:51:40.577Z,935.97
2019-01-09T08:52:48.637Z,936.03
2019-01-09T08:53:56.726Z,936.00
2019-01-09T08:55:04.843Z,936.04
2019-01-09T08:56:12.797Z,936.06
2019-01-09T08:57:20.846Z,936.12
2019-01-09T08:58:28.828Z,936.15
2019-01-09T08:59:37.013Z,936.20
2019-01-09T09:00:45.125Z,936.30
2019-01-09T09:01:53.105Z,936.27
2019-01-09T09:03:01.124Z,936.25
2019-01-09T09:04:09.193Z,936.32
2019-01-09T09:05:17.272Z,936.30
2019-01-09T09:06:25.400Z,936.33
2019-01-09T09:07:33.466Z,936.37
2019-01-09T09:08:41.393Z,936.33
2019-01-09T09:09:49.421Z,936.31
2019-01-09T09:10:57.563Z,936.37
2019-01-09T09:12:05.685Z,936.43
2019-01-09T09:13:13.596Z,936.37
2019-01-09T09:14:21.591Z,936.37
2019-01-09T09:15:29.717Z,936.42
2019-01-09T09:16:37.727Z,936.42
2019-01-09T09:17:45.872Z,936.42
2019-01-09T09:18:53.923Z,936.40
2019-01-09T09:20:02.173Z,936.32
2019-01-09T09:21:10.049Z,936.31
2019-01-09T09:22:18.079Z,936.39
2019-01-09T09:23:26.259Z,936.34
2019-01-09T09:24:34.153Z,936.37
2019-01-09T09:25:42.298Z,936.41
2019-01-09T09:26:50.348Z,936.36
2019-01-09T09:27:58.399Z,936.36
2019-01-09T09:29:06.432Z,936.38
2019-01-09T09:30:14.397Z,936.41
2019-01-09T09:31:22.589Z,936.44
2019-01-09T09:32:30.555Z,936.44
2019-01-09T09:33:38.690Z,936.53
2019-01-09T09:34:46.635Z,936.53
2019-01-09T09:35:54.888Z,936.55
2019-01-09T09:37:02.847Z,936.57
2019-01-09T09:38:10.971Z,936.53
2019-01-09T09:39:18.853Z,936.54
2019-01-09T09:40:27.038Z,936.53
2019-01-09T09:41:35.061Z,936.54
2019-01-09T09:42:43.203Z,936.55
2019-01-09T09:43:51.165Z,936.59
2019-01-09T09:44:59.205Z,936.61
2019-01-09T09:46:07.203Z,936.61
2019-01-09T09:47:15.350Z,936.63
2019-01-09T09:48:23.487Z,936.66
2019-01-09T09:49:31.458Z,936.64
2019-01-09T09:50:39.535Z,936.66
2019-01-09T09:51:47.498Z,936.72
2019-01-09T09:52:55.639Z,936.70
2019-01-09T09:54:03.649Z,936.72
2019-01-09T09:55:12.888Z,936.64
2019-01-09T09:56:19.845Z,936.71
2019-01-09T09:57:27.904Z,936.76
2019-01-09T09:58:36.034Z,936.70
2019-01-09T09:59:43.893Z,936.70
2019-01-09T10:00:52.075Z,936.69
2019-01-09T10:02:00.146Z,936.74
2019-01-09T10:03:08.101Z,936.71
2019-01-09T10:04:16.284Z,936.70
2019-01-09T10:05:24.289Z,936.65
2019-01-09T10:06:32.362Z,936.63
2019-01-09T10:07:40.375Z,936.69
2019-01-09T10:08:48.400Z,936.68
2019-01-09T10:09:56.560Z,936.64
2019-01-09T10:11:04.528Z,936.69
2019-01-09T10:12:12.591Z,936.64
2019-01-09T10:13:20.565Z,936.63
2019-01-09T10:14:28.725Z,936.69
2019-01-09T10:15:36.890Z,936.70
2019-01-09T10:16:44.838Z,936.71
2019-01-09T10:17:53.004Z,936.67
2019-01-09T10:19:00.947Z,936.66
2019-01-09T10:20:08.998Z,936.71
2019-01-09T10:21:17.142Z,936.69
2019-01-09T10:22:25.056Z,936.70
2019-01-09T10:23:33.188Z,936.72
2019-01-09T10:24:41.259Z,936.77
2019-01-09T10:25:49.180Z,936.77
2019-01-09T10:26:57.416Z,936.81
2019-01-09T10:28:05.303Z,936.87
2019-01-09T10:29:13.434Z,936.78
2019-01-09T10:30:21.419Z,936.81
2019-01-09T10:31:29.607Z,936.90
2019-01-09T10:32:37.617Z,936.90
2019-01-09T10:33:45.785Z,936.92
2019-01-09T10:34:53.649Z,936.92
2019-01-09T10:36:01.692Z,936.87
2019-01-09T10:37:09.853Z,936.94
2019-01-09T10:38:18.010Z,936.93
2019-01-09T10:39:25.973Z,936.92
2019-01-09T10:40:36.185Z,936.99
2019-01-09T10:41:42.071Z,937.05
2019-01-09T10:42:50.245Z,937.02
2019-01-09T10:43:58.229Z,937.04
2019-01-09T10:45:06.233Z,937.01
2019-01-09T10:46:14.208Z,937.03
2019-01-09T10:47:22.378Z,937.00
2019-01-09T10:48:30.396Z,937.04
2019-01-09T10:49:38.541Z,937.01
2019-01-09T10:50:46.429Z,937.04
2019-01-09T10:51:54.611Z,936.95
2019-01-09T10:53:02.729Z,937.05
2019-01-09T10:54:10.590Z,937.05
2019-01-09T10:55:18.766Z,936.98
2019-01-09T10:56:26.838Z,937.04
2019-01-09T10:57:34.784Z,937.04
2019-01-09T10:58:42.991Z,937.03
2019-01-09T10:59:50.938Z,937.06
2019-01-09T11:00:59.038Z,937.03
2019-01-09T11:02:07.020Z,937.08
2019-01-09T11:03:15.158Z,937.02
2019-01-09T11:04:23.323Z,937.01
2019-01-09T11:05:31.171Z,936.99
2019-01-09T11:06:39.328Z,937.02
2019-01-09T11:07:47.293Z,937.02
2019-01-09T11:08:55.436Z,937.04
2019-01-09T11:10:03.607Z,937.03
2019-01-09T11:11:11.583Z,937.04
2019-01-09T11:12:19.570Z,937.05
2019-01-09T11:13:27.673Z,936.97
2019-01-09T11:14:35.803Z,937.01
2019-01-09T11:15:43.809Z,937.00
2019-01-09T11:16:51.871Z,936.95
2019-01-09T11:19:33.655Z,936.93
2019-01-09T11:20:44.294Z,936.95
2019-01-09T11:21:52.232Z,936.89
2019-01-09T11:23:00.421Z,936.86
2019-01-09T11:24:08.470Z,936.83
2019-01-09T11:25:16.579Z,936.91
2019-01-09T11:26:24.492Z,936.87
2019-01-09T11:27:32.668Z,936.85
2019-01-09T11:28:40.684Z,936.82
2019-01-09T11:29:48.701Z,936.81
2019-01-09T11:30:56.895Z,936.78
2019-01-09T11:32:04.838Z,936.80
2019-01-09T11:33:12.814Z,936.82
2019-01-09T11:34:20.958Z,936.76
2019-01-09T11:35:29.079Z,936.69
2019-01-09T11:36:37.425Z,936.68
2019-01-09T11:37:45.029Z,936.72
2019-01-09T11:38:55.745Z,936.66
2019-01-09T11:40:01.223Z,936.64
2019-01-09T11:41:09.278Z,936.53
2019-01-09T11:42:17.347Z,936.53
2019-01-09T11:43:25.424Z,936.47
2019-01-09T11:44:33.465Z,936.56
2019-01-09T11:45:41.457Z,936.54
2019-01-09T11:46:49.531Z,936.48
2019-01-09T11:47:57.700Z,936.53
2019-01-09T11:49:05.737Z,936.57
2019-01-09T11:50:13.744Z,936.52
2019-01-09T11:51:21.907Z,936.56
2019-01-09T11:52:29.875Z,936.56
2019-01-09T11:53:37.925Z,936.62
2019-01-09T11:54:45.952Z,936.60
2019-01-09T11:55:54.025Z,936.57
2019-01-09T11:57:02.193Z,936.48
2019-01-09T11:58:10.312Z,936.53
2019-01-09T11:59:18.241Z,936.51
2019-01-09T12:00:26.365Z,936.53
2019-01-09T12:01:34.311Z,936.56
2019-01-09T12:02:42.394Z,936.56
2019-01-09T12:03:50.449Z,936.54
2019-01-09T12:04:58.534Z,936.52
2019-01-09T12:06:06.658Z,936.51
2019-01-09T12:07:14.662Z,936.53
2019-01-09T12:08:22.769Z,936.57
2019-01-09T12:09:30.713Z,936.50
2019-01-09T12:10:38.706Z,936.52
2019-01-09T12:11:46.872Z,936.49
2019-01-09T12:12:54.834Z,936.49
2019-01-09T12:14:03.070Z,936.47
2019-01-09T12:15:10.917Z,936.49
2019-01-09T12:16:18.992Z,936.53
2019-01-09T12:17:27.143Z,936.54
2019-01-09T12:18:35.115Z,936.52
2019-01-09T12:19:43.342Z,936.50
2019-01-09T12:20:51.297Z,936.45
2019-01-09T12:21:59.284Z,936.45
2019-01-09T12:23:07.539Z,936.42
2019-01-09T12:24:15.389Z,936.42
2019-01-09T12:25:23.619Z,936.44
2019-01-09T12:26:31.536Z,936.39
2019-01-09T12:27:39.670Z,936.36
2019-01-09T12:28:53.313Z,936.33
2019-01-09T12:29:55.789Z,936.39
2019-01-09T12:31:03.956Z,936.32
2019-01-09T12:32:11.897Z,936.34
2019-01-09T12:33:19.863Z,936.40
2019-01-09T12:34:28.006Z,936.37
2019-01-09T12:35:36.064Z,936.34
2019-01-09T12:36:44.240Z,936.33
2019-01-09T12:37:52.261Z,936.31
2019-01-09T12:39:00.271Z,936.28
2019-01-09T12:40:08.302Z,936.31
2019-01-09T12:41:16.288Z,936.32
2019-01-09T12:42:24.513Z,936.37
2019-01-09T12:43:32.477Z,936.36
2019-01-09T12:44:40.450Z,936.36
2019-01-09T12:45:48.504Z,936.28
2019-01-09T12:46:56.662Z,936.33
2019-01-09T12:48:04.855Z,936.32
2019-01-09T12:49:12.770Z,936.28
2019-01-09T12:50:20.854Z,936.30
2019-01-09T12:51:28.798Z,936.36
2019-01-09T12:52:36.943Z,936.36
2019-01-09T12:53:45.014Z,936.37
2019-01-09T12:54:53.059Z,936.29
2019-01-09T12:56:01.135Z,936.25
2019-01-09T12:57:09.081Z,936.31
2019-01-09T12:58:17.331Z,936.30
2019-01-09T12:59:25.305Z,936.33
2019-01-09T13:00:33.276Z,936.33
2019-01-09T13:01:41.365Z,936.30
2019-01-09T13:02:49.480Z,936.29
2019-01-09T13:03:57.606Z,936.34
2019-01-09T13:05:05.532Z,936.35
2019-01-09T13:06:13.662Z,936.37
2019-01-09T13:07:21.603Z,936.40
2019-01-09T13:08:29.857Z,936.38
2019-01-09T13:09:37.951Z,936.35
2019-01-09T13:10:45.838Z,936.34
2019-01-09T13:11:53.941Z,936.36
2019-01-09T13:13:01.975Z,936.37
2019-01-09T13:14:10.002Z,936.36
2019-01-09T13:15:18.289Z,936.37
2019-01-09T13:16:26.164Z,936.41
2019-01-09T13:17:34.244Z,936.36
2019-01-09T13:18:42.276Z,936.33
2019-01-09T13:19:50.259Z,936.37
2019-01-09T13:20:58.395Z,936.37
2019-01-09T13:22:06.434Z,936.39
2019-01-09T13:23:14.405Z,936.39
2019-01-09T13:24:22.660Z,936.34
2019-01-09T13:25:30.629Z,936.37
2019-01-09T13:26:38.780Z,936.39
2019-01-09T13:27:46.699Z,936.40
2019-01-09T13:28:54.746Z,936.44
2019-01-09T13:30:02.858Z,936.48
2019-01-09T13:31:10.800Z,936.45
2019-01-09T13:32:19.043Z,936.49
2019-01-09T13:33:27.038Z,936.44
2019-01-09T13:34:34.993Z,936.45
2019-01-09T13:35:43.136Z,936.50
2019-01-09T13:36:51.121Z,936.48
2019-01-09T13:37:59.346Z,936.53
2019-01-09T13:39:07.284Z,936.51
2019-01-09T13:40:15.594Z,936.55
2019-01-09T13:41:23.421Z,936.56
2019-01-09T13:42:31.448Z,936.56
2019-01-09T13:43:39.462Z,936.56
2019-01-09T13:44:47.609Z,936.55
2019-01-09T13:45:55.576Z,936.54
2019-01-09T13:47:03.751Z,936.52
2019-01-09T13:48:11.847Z,936.50
2019-01-09T13:49:19.841Z,936.52
2019-01-09T13:50:27.908Z,936.51
2019-01-09T13:51:35.949Z,936.50
2019-01-09T13:52:43.912Z,936.50
2019-01-09T13:53:52.145Z,936.48
2019-01-09T13:55:00.031Z,936.48
2019-01-09T13:56:08.261Z,936.52
2019-01-09T13:57:16.272Z,936.46
2019-01-09T13:58:24.208Z,936.46
2019-01-09T13:59:32.707Z,936.46
2019-01-09T14:00:40.381Z,936.42
2019-01-09T14:01:48.413Z,936.49
2019-01-09T14:02:56.576Z,936.48
2019-01-09T14:04:04.616Z,936.49
2019-01-09T14:05:12.758Z,936.44
2019-01-09T14:06:20.705Z,936.52
2019-01-09T14:07:28.712Z,936.50
2019-01-09T14:08:36.868Z,936.54
2019-01-09T14:09:44.839Z,936.57
2019-01-09T14:10:53.041Z,936.60
2019-01-09T14:12:00.973Z,936.60
2019-01-09T14:13:08.979Z,936.56
2019-01-09T14:14:17.010Z,936.58
2019-01-09T14:15:25.192Z,936.63
2019-01-09T14:16:33.274Z,936.58
2019-01-09T14:17:41.165Z,936.59
2019-01-09T14:18:55.083Z,936.63
2019-01-09T14:19:57.338Z,936.64
2019-01-09T14:21:05.499Z,936.66
2019-01-09T14:22:13.501Z,936.70
2019-01-09T14:23:21.540Z,936.67
2019-01-09T14:24:29.572Z,936.73
2019-01-09T14:25:37.580Z,936.72
2019-01-09T14:26:45.829Z,936.69
2019-01-09T14:27:53.781Z,936.69
2019-01-09T14:29:01.870Z,936.73
2019-01-09T14:30:09.853Z,936.76
2019-01-09T14:31:17.960Z,936.72
2019-01-09T14:32:26.016Z,936.70
2019-01-09T14:33:33.971Z,936.68
2019-01-09T14:34:42.044Z,936.68
2019-01-09T14:35:50.172Z,936.67
2019-01-09T14:36:58.343Z,936.69
2019-01-09T14:38:06.313Z,936.68
2019-01-09T14:39:14.409Z,936.66
2019-01-09T14:40:22.367Z,936.70
2019-01-09T14:41:30.543Z,936.72
2019-01-09T14:42:38.651Z,936.75
2019-01-09T14:43:46.582Z,936.74
2019-01-09T14:44:54.623Z,936.75
2019-01-09T14:46:02.726Z,936.73